createdAt,value
2017-09-10T00:00:29.246Z,90.60
2017-09-10T00:02:57.529Z,90.80
2017-09-10T00:05:25.814Z,90.50
2017-09-10T00:07:54.107Z,90.50
2017-09-10T00:10:22.379Z,90.10
2017-09-10T00:12:50.650Z,90.30
2017-09-10T00:15:18.886Z,90.40
2017-09-10T00:17:47.916Z,90.50
2017-09-10T00:20:16.181Z,90.50
2017-09-10T00:22:44.428Z,90.80
2017-09-10T00:25:12.696Z,90.90
2017-09-10T00:27:41.859Z,91.10
2017-09-10T00:30:10.102Z,90.90
2017-09-10T00:32:39.150Z,90.60
2017-09-10T00:35:07.439Z,90.60
2017-09-10T00:37:35.744Z,90.50
2017-09-10T00:40:04.785Z,90.50
2017-09-10T00:42:33.057Z,90.50
2017-09-10T00:45:01.347Z,90.40
2017-09-10T00:47:29.644Z,90.50
2017-09-10T00:49:57.893Z,90.40
2017-09-10T00:52:26.177Z,90.60
2017-09-10T00:54:54.449Z,90.60
2017-09-10T00:57:22.792Z,90.80
2017-09-10T00:59:51.056Z,91.00
2017-09-10T01:02:20.113Z,90.90
2017-09-10T01:04:48.385Z,90.80
2017-09-10T01:07:16.629Z,90.70
2017-09-10T01:09:44.935Z,90.80
2017-09-10T01:12:13.218Z,91.00
2017-09-10T01:14:41.587Z,91.30
2017-09-10T01:17:10.803Z,91.00
2017-09-10T01:19:39.192Z,91.00
2017-09-10T01:22:07.491Z,91.40
2017-09-10T01:24:36.562Z,91.00
2017-09-10T01:27:04.877Z,91.00
2017-09-10T01:29:33.131Z,90.80
2017-09-10T01:32:01.392Z,90.80
2017-09-10T01:34:29.656Z,90.60
2017-09-10T01:36:58.770Z,90.70
2017-09-10T01:39:27.056Z,90.70
2017-09-10T01:41:55.323Z,90.70
2017-09-10T01:44:23.595Z,90.90
2017-09-10T01:46:51.858Z,90.80
2017-09-10T01:49:20.103Z,90.90
2017-09-10T01:51:48.392Z,90.90
2017-09-10T01:54:16.685Z,91.00
2017-09-10T01:56:44.945Z,90.80
2017-09-10T01:59:13.212Z,90.70
2017-09-10T02:01:42.235Z,91.00
2017-09-10T02:04:10.517Z,91.00
2017-09-10T02:06:38.797Z,91.00
2017-09-10T02:09:07.864Z,90.90
2017-09-10T02:11:36.177Z,90.90
2017-09-10T02:14:04.442Z,90.90
2017-09-10T02:16:32.699Z,90.80
2017-09-10T02:19:00.955Z,90.70
2017-09-10T02:21:29.205Z,90.50
2017-09-10T02:23:57.457Z,90.40
2017-09-10T02:26:25.702Z,90.60
2017-09-10T02:28:53.968Z,90.60
2017-09-10T02:31:23.004Z,90.80
2017-09-10T02:33:51.231Z,90.80
2017-09-10T02:36:20.277Z,90.80
2017-09-10T02:38:49.310Z,90.70
2017-09-10T02:41:17.567Z,90.70
2017-09-10T02:43:46.594Z,90.80
2017-09-10T02:46:14.870Z,90.80
2017-09-10T02:48:43.105Z,90.80
2017-09-10T02:51:12.098Z,90.30
2017-09-10T02:53:40.347Z,90.40
2017-09-10T02:56:08.606Z,90.30
2017-09-10T02:58:37.629Z,90.30
2017-09-10T03:01:05.884Z,90.30
2017-09-10T03:03:34.912Z,90.30
2017-09-10T03:06:03.183Z,90.30
2017-09-10T03:08:31.451Z,90.50
2017-09-10T03:10:59.729Z,90.60
2017-09-10T03:13:27.966Z,90.50
2017-09-10T03:15:56.267Z,90.50
2017-09-10T03:18:25.267Z,90.50
2017-09-10T03:20:53.575Z,90.50
2017-09-10T03:23:21.827Z,90.40
2017-09-10T03:25:50.053Z,90.40
2017-09-10T03:28:18.350Z,90.10
2017-09-10T03:30:47.130Z,90.00
2017-09-10T03:33:15.398Z,89.70
2017-09-10T03:35:43.658Z,90.10
2017-09-10T03:38:11.914Z,90.10
2017-09-10T03:40:40.173Z,90.40
2017-09-10T03:43:08.424Z,90.50
2017-09-10T03:45:37.473Z,91.00
2017-09-10T03:48:06.477Z,90.60
2017-09-10T03:50:34.751Z,90.60
2017-09-10T03:53:03.796Z,90.20
2017-09-10T03:55:32.056Z,90.60
2017-09-10T03:58:01.106Z,91.00
2017-09-10T04:00:29.349Z,91.00
2017-09-10T04:02:58.355Z,91.30
2017-09-10T04:05:26.699Z,91.20
2017-09-10T04:07:54.955Z,91.20
2017-09-10T04:10:24.007Z,91.20
2017-09-10T04:12:52.649Z,91.20
2017-09-10T04:15:20.919Z,91.30
2017-09-10T04:17:49.149Z,91.20
2017-09-10T04:20:17.398Z,90.90
2017-09-10T04:22:45.649Z,91.00
2017-09-10T04:25:13.900Z,91.20
2017-09-10T04:27:42.146Z,91.10
2017-09-10T04:30:11.166Z,91.20
2017-09-10T04:32:39.424Z,91.20
2017-09-10T04:35:08.431Z,91.00
2017-09-10T04:37:36.666Z,91.00
2017-09-10T04:40:05.716Z,91.10
2017-09-10T04:42:33.963Z,91.10
2017-09-10T04:45:02.215Z,91.20
2017-09-10T04:47:30.443Z,91.30
2017-09-10T04:49:58.666Z,91.30
2017-09-10T04:52:27.712Z,91.70
2017-09-10T04:54:55.951Z,91.40
2017-09-10T04:57:24.245Z,91.40
2017-09-10T04:59:53.222Z,91.30
2017-09-10T05:02:22.270Z,91.30
2017-09-10T05:04:51.312Z,91.20
2017-09-10T05:07:20.353Z,91.30
2017-09-10T05:09:48.846Z,91.30
2017-09-10T05:12:17.143Z,91.20
2017-09-10T05:14:45.409Z,91.50
2017-09-10T05:17:13.673Z,91.50
2017-09-10T05:19:41.962Z,91.40
2017-09-10T05:22:10.966Z,90.60
2017-09-10T05:24:39.214Z,90.50
2017-09-10T05:27:08.279Z,90.40
2017-09-10T05:29:37.334Z,90.40
2017-09-10T05:32:05.579Z,90.40
2017-09-10T05:34:33.828Z,90.60
2017-09-10T05:37:02.849Z,90.40
2017-09-10T05:39:31.124Z,90.40
2017-09-10T05:41:59.389Z,90.80
2017-09-10T05:44:27.715Z,90.60
2017-09-10T05:46:55.987Z,90.70
2017-09-10T05:49:24.243Z,90.70
2017-09-10T05:51:52.519Z,90.50
2017-09-10T05:54:20.774Z,90.20
2017-09-10T05:56:49.043Z,90.30
2017-09-10T05:59:17.300Z,90.40
2017-09-10T06:01:45.560Z,90.10
2017-09-10T06:04:13.817Z,90.00
2017-09-10T06:06:42.091Z,90.00
2017-09-10T06:09:10.352Z,89.80
2017-09-10T06:11:38.621Z,89.30
2017-09-10T06:14:06.880Z,89.20
2017-09-10T06:16:35.936Z,88.80
2017-09-10T06:19:04.223Z,88.80
2017-09-10T06:21:32.479Z,89.40
2017-09-10T06:24:00.733Z,89.60
2017-09-10T06:26:29.015Z,88.50
2017-09-10T06:28:57.271Z,88.90
2017-09-10T06:31:25.548Z,89.40
2017-09-10T06:33:54.615Z,88.40
2017-09-10T06:36:22.887Z,88.30
2017-09-10T06:38:51.126Z,88.80
2017-09-10T06:41:20.160Z,88.40
2017-09-10T06:43:48.417Z,88.40
2017-09-10T06:46:16.684Z,89.00
2017-09-10T06:48:44.947Z,88.20
2017-09-10T06:51:13.238Z,87.10
2017-09-10T06:53:41.492Z,88.00
2017-09-10T06:56:09.767Z,87.30
2017-09-10T06:58:38.038Z,87.60
2017-09-10T07:01:06.290Z,87.30
2017-09-10T07:03:35.326Z,86.70
2017-09-10T07:06:03.593Z,86.00
2017-09-10T07:08:31.883Z,86.50
2017-09-10T07:11:00.136Z,86.10
2017-09-10T07:13:28.392Z,85.00
2017-09-10T07:15:57.461Z,85.40
2017-09-10T07:18:25.722Z,85.40
2017-09-10T07:20:53.997Z,83.50
2017-09-10T07:23:22.263Z,81.80
2017-09-10T07:25:50.527Z,82.80
2017-09-10T07:28:18.812Z,83.40
2017-09-10T07:30:47.026Z,83.40
2017-09-10T07:33:15.276Z,82.30
2017-09-10T07:35:43.535Z,82.20
2017-09-10T07:38:11.803Z,82.80
2017-09-10T07:40:40.061Z,82.70
2017-09-10T07:43:08.356Z,82.40
2017-09-10T07:45:36.635Z,81.80
2017-09-10T07:48:04.931Z,81.80
2017-09-10T07:50:33.198Z,81.30
2017-09-10T07:53:01.468Z,80.00
2017-09-10T07:55:29.747Z,81.70
2017-09-10T07:57:58.015Z,80.00
2017-09-10T08:00:27.045Z,79.80
2017-09-10T08:02:55.332Z,79.80
2017-09-10T08:05:24.364Z,79.80
2017-09-10T08:07:52.601Z,79.80
2017-09-10T08:10:20.861Z,80.00
2017-09-10T08:12:49.153Z,80.60
2017-09-10T08:15:17.396Z,80.50
2017-09-10T08:17:45.750Z,80.30
2017-09-10T08:20:13.998Z,80.20
2017-09-10T08:22:42.269Z,79.40
2017-09-10T08:25:10.516Z,80.70
2017-09-10T08:27:38.742Z,81.10
2017-09-10T08:30:06.999Z,80.30
2017-09-10T08:32:36.023Z,81.50
2017-09-10T08:35:04.324Z,81.50
2017-09-10T08:37:32.585Z,81.80
2017-09-10T08:40:01.655Z,79.60
2017-09-10T08:42:29.896Z,79.70
2017-09-10T08:44:58.150Z,79.80
2017-09-10T08:47:26.470Z,78.00
2017-09-10T08:49:54.782Z,78.20
2017-09-10T08:52:23.081Z,75.80
2017-09-10T08:54:52.138Z,74.10
2017-09-10T08:57:21.305Z,74.10
2017-09-10T08:59:49.530Z,72.90
2017-09-10T09:02:26.420Z,72.00
2017-09-10T09:04:57.599Z,72.00
2017-09-10T09:07:25.930Z,70.90
2017-09-10T09:09:54.180Z,69.60
2017-09-10T09:12:23.219Z,68.00
2017-09-10T09:14:51.476Z,68.00
2017-09-10T09:17:19.740Z,66.90
2017-09-10T09:19:48.008Z,67.00
2017-09-10T09:22:16.251Z,66.40
2017-09-10T09:24:44.521Z,67.50
2017-09-10T09:27:13.525Z,67.40
2017-09-10T09:29:41.799Z,67.40
2017-09-10T09:32:10.819Z,66.70
2017-09-10T09:34:39.038Z,66.70
2017-09-10T09:37:07.371Z,66.00
2017-09-10T09:39:35.627Z,65.90
2017-09-10T09:42:03.969Z,65.00
2017-09-10T09:44:32.238Z,64.90
2017-09-10T09:47:00.543Z,65.40
2017-09-10T09:49:28.790Z,65.10
2017-09-10T09:51:58.043Z,66.50
2017-09-10T09:54:26.647Z,66.50
2017-09-10T09:56:54.899Z,67.30
2017-09-10T09:59:23.986Z,66.70
2017-09-10T10:01:53.039Z,66.40
2017-09-10T10:04:21.325Z,66.30
2017-09-10T10:06:50.428Z,66.10
2017-09-10T10:09:18.690Z,66.00
2017-09-10T10:11:50.566Z,66.20
2017-09-10T10:14:34.453Z,63.50
2017-09-10T10:17:02.844Z,63.50
2017-09-10T10:19:31.094Z,63.20
2017-09-10T10:22:00.283Z,64.10
2017-09-10T10:24:28.615Z,63.20
2017-09-10T10:26:56.857Z,61.70
2017-09-10T10:29:25.894Z,59.90
2017-09-10T10:31:57.160Z,60.00
2017-09-10T10:34:25.411Z,61.00
2017-09-10T10:36:53.723Z,61.40
2017-09-10T10:39:21.993Z,58.90
2017-09-10T10:41:50.300Z,59.70
2017-09-10T10:44:18.551Z,59.20
2017-09-10T10:46:46.828Z,59.30
2017-09-10T10:49:15.100Z,58.90
2017-09-10T10:51:44.128Z,60.30
2017-09-10T10:54:13.164Z,60.90
2017-09-10T10:56:41.429Z,60.70
2017-09-10T10:59:09.683Z,60.50
2017-09-10T11:01:38.277Z,60.00
2017-09-10T11:04:06.542Z,61.20
2017-09-10T11:06:34.780Z,61.90
2017-09-10T11:09:03.125Z,62.40
2017-09-10T11:11:31.385Z,62.00
2017-09-10T11:13:59.659Z,61.40
2017-09-10T11:16:27.915Z,61.00
2017-09-10T11:18:56.967Z,57.80
2017-09-10T11:21:25.347Z,57.70
2017-09-10T11:23:53.638Z,58.50
2017-09-10T11:26:21.918Z,59.30
2017-09-10T11:28:50.259Z,58.30
2017-09-10T11:31:18.494Z,57.90
2017-09-10T11:33:46.756Z,57.50
2017-09-10T11:36:15.167Z,59.00
2017-09-10T11:38:43.423Z,60.10
2017-09-10T11:41:11.759Z,59.90
2017-09-10T11:43:40.147Z,59.40
2017-09-10T11:46:08.401Z,58.90
2017-09-10T11:48:36.655Z,59.10
2017-09-10T11:51:04.958Z,58.90
2017-09-10T11:53:33.249Z,58.80
2017-09-10T11:56:01.495Z,57.70
2017-09-10T11:58:30.548Z,58.00
2017-09-10T12:00:58.835Z,58.00
2017-09-10T12:03:27.098Z,56.80
2017-09-10T12:05:55.420Z,56.30
2017-09-10T12:08:23.715Z,54.70
2017-09-10T12:10:51.992Z,54.70
2017-09-10T12:13:20.266Z,54.40
2017-09-10T12:15:48.522Z,55.70
2017-09-10T12:18:16.811Z,55.60
2017-09-10T12:20:45.069Z,55.80
2017-09-10T12:23:13.421Z,56.50
2017-09-10T12:25:41.676Z,56.70
2017-09-10T12:28:09.929Z,58.30
2017-09-10T12:30:38.178Z,57.50
2017-09-10T12:33:07.297Z,56.80
2017-09-10T12:35:36.290Z,56.80
2017-09-10T12:38:04.555Z,56.80
2017-09-10T12:40:32.839Z,57.00
2017-09-10T12:43:01.896Z,56.90
2017-09-10T12:45:30.161Z,56.80
2017-09-10T12:47:58.424Z,57.10
2017-09-10T12:50:27.759Z,56.30
2017-09-10T12:52:56.047Z,56.30
2017-09-10T12:55:25.064Z,57.00
2017-09-10T12:57:53.344Z,56.90
2017-09-10T13:00:21.615Z,57.20
2017-09-10T13:02:49.906Z,58.50
2017-09-10T13:05:18.612Z,60.20
2017-09-10T13:07:46.866Z,60.00
2017-09-10T13:10:15.910Z,59.70
2017-09-10T13:12:44.153Z,59.70
2017-09-10T13:15:12.457Z,59.70
2017-09-10T13:17:40.735Z,61.40
2017-09-10T13:20:09.003Z,60.80
2017-09-10T13:22:37.223Z,60.30
2017-09-10T13:25:06.367Z,58.90
2017-09-10T13:27:34.598Z,58.80
2017-09-10T13:30:03.611Z,59.00
2017-09-10T13:32:31.915Z,59.00
2017-09-10T13:35:00.185Z,59.20
2017-09-10T13:37:28.485Z,58.90
2017-09-10T13:39:56.733Z,58.40
2017-09-10T13:42:25.770Z,59.10
2017-09-10T13:44:54.117Z,59.10
2017-09-10T13:47:22.425Z,58.10
2017-09-10T13:49:50.653Z,58.00
2017-09-10T13:52:18.963Z,57.90
2017-09-10T13:54:47.195Z,58.10
2017-09-10T13:57:16.247Z,59.40
2017-09-10T13:59:44.532Z,59.40
2017-09-10T14:02:13.533Z,58.10
2017-09-10T14:04:41.807Z,58.10
2017-09-10T14:07:10.097Z,57.10
2017-09-10T14:09:38.347Z,56.50
2017-09-10T14:12:06.589Z,56.90
2017-09-10T14:14:34.854Z,56.70
2017-09-10T14:17:03.909Z,58.40
2017-09-10T14:19:32.145Z,58.40
2017-09-10T14:22:00.398Z,57.70
2017-09-10T14:24:28.674Z,57.30
2017-09-10T14:26:56.942Z,56.40
2017-09-10T14:29:25.167Z,55.60
2017-09-10T14:31:53.425Z,54.30
2017-09-10T14:34:21.714Z,54.50
2017-09-10T14:36:49.980Z,54.80
2017-09-10T14:39:18.987Z,54.30
2017-09-10T14:41:47.288Z,54.30
2017-09-10T14:44:15.571Z,54.80
2017-09-10T14:46:43.812Z,54.20
2017-09-10T14:49:12.062Z,54.80
2017-09-10T14:51:41.086Z,55.20
2017-09-10T14:54:09.375Z,55.20
2017-09-10T14:56:37.751Z,55.20
2017-09-10T14:59:06.923Z,55.30
2017-09-10T15:01:35.515Z,55.80
2017-09-10T15:04:03.790Z,55.60
2017-09-10T15:06:32.095Z,55.20
2017-09-10T15:09:00.335Z,55.70
2017-09-10T15:11:28.607Z,55.60
2017-09-10T15:13:56.917Z,55.50
2017-09-10T15:16:25.230Z,55.60
2017-09-10T15:18:53.510Z,56.70
2017-09-10T15:21:22.571Z,57.30
2017-09-10T15:23:50.817Z,57.30
2017-09-10T15:26:19.116Z,57.50
2017-09-10T15:28:47.404Z,58.30
2017-09-10T15:31:16.447Z,58.60
2017-09-10T15:33:44.718Z,58.60
2017-09-10T15:36:13.032Z,58.50
2017-09-10T15:38:41.341Z,59.20
2017-09-10T15:41:09.622Z,58.10
2017-09-10T15:43:39.108Z,58.20
2017-09-10T15:46:07.379Z,58.20
2017-09-10T15:48:35.640Z,58.70
2017-09-10T15:51:03.930Z,58.80
2017-09-10T15:53:32.220Z,57.20
2017-09-10T15:56:00.553Z,58.20
2017-09-10T15:58:28.863Z,59.20
2017-09-10T16:00:57.098Z,59.10
2017-09-10T16:03:25.376Z,59.10
2017-09-10T16:05:53.632Z,58.70
2017-09-10T16:08:21.904Z,58.60
2017-09-10T16:10:50.198Z,57.80
2017-09-10T16:13:18.510Z,58.20
2017-09-10T16:15:46.786Z,58.40
2017-09-10T16:18:15.867Z,57.40
2017-09-10T16:20:44.126Z,57.40
2017-09-10T16:23:12.375Z,57.90
2017-09-10T16:25:40.633Z,58.00
2017-09-10T16:28:08.917Z,57.80
2017-09-10T16:30:37.170Z,57.90
2017-09-10T16:33:05.525Z,57.40
2017-09-10T16:35:33.774Z,57.60
2017-09-10T16:38:02.091Z,57.80
2017-09-10T16:40:30.337Z,57.90
2017-09-10T16:43:00.054Z,57.20
2017-09-10T16:45:28.355Z,57.40
2017-09-10T16:47:57.280Z,58.20
2017-09-10T16:50:25.563Z,58.40
2017-09-10T16:52:53.865Z,59.20
2017-09-10T16:55:22.916Z,59.40
2017-09-10T16:57:51.174Z,59.80
2017-09-10T17:00:19.564Z,60.20
2017-09-10T17:02:48.653Z,60.80
2017-09-10T17:05:16.933Z,60.80
2017-09-10T17:07:45.198Z,61.10
2017-09-10T17:10:13.543Z,62.10
2017-09-10T17:12:42.622Z,62.10
2017-09-10T17:15:10.867Z,62.10
2017-09-10T17:17:39.149Z,62.00
2017-09-10T17:20:08.250Z,63.20
2017-09-10T17:22:37.264Z,63.40
2017-09-10T17:25:05.545Z,63.40
2017-09-10T17:27:34.723Z,63.90
2017-09-10T17:30:03.041Z,64.10
2017-09-10T17:32:32.087Z,64.60
2017-09-10T17:35:02.125Z,65.00
2017-09-10T17:37:30.490Z,64.90
2017-09-10T17:39:59.008Z,65.80
2017-09-10T17:42:27.289Z,65.00
2017-09-10T17:44:55.549Z,64.90
2017-09-10T17:47:23.832Z,65.50
2017-09-10T17:49:52.085Z,65.80
2017-09-10T17:52:20.448Z,66.10
2017-09-10T17:54:48.735Z,66.10
2017-09-10T17:57:17.000Z,66.50
2017-09-10T17:59:45.258Z,66.50
2017-09-10T18:02:13.554Z,66.90
2017-09-10T18:04:41.836Z,66.90
2017-09-10T18:07:10.124Z,67.50
2017-09-10T18:09:39.182Z,67.90
2017-09-10T18:12:07.472Z,67.80
2017-09-10T18:14:35.744Z,68.10
2017-09-10T18:17:04.211Z,68.40
2017-09-10T18:19:33.217Z,68.60
2017-09-10T18:22:01.473Z,68.60
2017-09-10T18:24:29.782Z,68.80
2017-09-10T18:26:58.096Z,69.00
2017-09-10T18:29:26.386Z,68.90
2017-09-10T18:31:54.698Z,69.20
2017-09-10T18:34:22.960Z,69.70
2017-09-10T18:36:51.945Z,69.70
2017-09-10T18:39:20.691Z,69.90
2017-09-10T18:41:48.975Z,69.70
2017-09-10T18:44:17.260Z,70.00
2017-09-10T18:46:47.182Z,69.90
2017-09-10T18:49:15.589Z,69.90
2017-09-10T18:51:43.861Z,69.90
2017-09-10T18:54:12.187Z,70.00
2017-09-10T18:56:40.506Z,71.00
2017-09-10T18:59:09.728Z,70.20
2017-09-10T19:01:38.120Z,70.40
2017-09-10T19:04:08.038Z,71.00
2017-09-10T19:06:36.685Z,71.00
2017-09-10T19:09:05.152Z,71.20
2017-09-10T19:11:34.277Z,71.40
2017-09-10T19:14:03.345Z,71.50
2017-09-10T19:16:32.504Z,71.70
2017-09-10T19:19:00.817Z,72.30
2017-09-10T19:21:29.109Z,72.20
2017-09-10T19:23:57.624Z,72.10
2017-09-10T19:26:25.911Z,72.50
2017-09-10T19:28:54.464Z,73.20
2017-09-10T19:31:23.424Z,72.60
2017-09-10T19:33:51.773Z,72.70
2017-09-10T19:36:20.257Z,72.60
2017-09-10T19:38:48.718Z,72.90
2017-09-10T19:41:17.017Z,72.90
2017-09-10T19:43:45.553Z,73.10
2017-09-10T19:46:15.495Z,73.10
2017-09-10T19:48:43.839Z,73.00
2017-09-10T19:51:12.109Z,72.90
2017-09-10T19:53:40.703Z,72.90
2017-09-10T19:56:09.185Z,73.00
2017-09-10T19:58:38.809Z,73.10
2017-09-10T20:01:07.949Z,73.00
2017-09-10T20:03:36.432Z,72.80
2017-09-10T20:06:04.694Z,73.10
2017-09-10T20:08:32.978Z,72.90
2017-09-10T20:11:01.843Z,72.80
2017-09-10T20:13:32.017Z,73.10
2017-09-10T20:16:00.320Z,72.90
2017-09-10T20:18:28.764Z,73.40
2017-09-10T20:20:57.973Z,73.30
2017-09-10T20:23:26.345Z,73.70
2017-09-10T20:25:55.552Z,73.70
2017-09-10T20:28:24.641Z,74.00
2017-09-10T20:30:53.111Z,73.70
2017-09-10T20:33:21.424Z,73.70
2017-09-10T20:35:49.675Z,74.00
2017-09-10T20:38:17.916Z,73.80
2017-09-10T20:40:46.701Z,73.90
2017-09-10T20:43:15.008Z,73.60
2017-09-10T20:45:43.240Z,73.40
2017-09-10T20:48:11.530Z,73.40
2017-09-10T20:50:39.816Z,73.40
2017-09-10T20:53:08.080Z,72.80
2017-09-10T20:55:36.314Z,72.50
2017-09-10T20:58:04.620Z,72.40
2017-09-10T21:00:33.638Z,71.80
2017-09-10T21:03:01.933Z,71.80
2017-09-10T21:05:30.216Z,71.70
2017-09-10T21:07:58.460Z,71.20
2017-09-10T21:10:26.723Z,71.00
2017-09-10T21:12:54.991Z,70.90
2017-09-10T21:15:23.258Z,70.50
2017-09-10T21:17:51.528Z,70.60
2017-09-10T21:20:19.764Z,70.20
2017-09-10T21:22:48.038Z,70.00
2017-09-10T21:25:16.290Z,69.90
2017-09-10T21:27:44.545Z,69.20
2017-09-10T21:30:13.588Z,68.90
2017-09-10T21:32:41.843Z,68.70
2017-09-10T21:35:10.575Z,69.00
2017-09-10T21:37:38.808Z,68.70
2017-09-10T21:40:07.086Z,68.70
2017-09-10T21:42:35.350Z,68.70
2017-09-10T21:45:03.581Z,68.70
2017-09-10T21:47:31.853Z,68.80
2017-09-10T21:50:00.102Z,68.80
2017-09-10T21:52:29.375Z,69.50
2017-09-10T21:54:58.414Z,69.10
2017-09-10T21:57:26.644Z,69.00
2017-09-10T21:59:54.951Z,69.10
2017-09-10T22:02:23.941Z,68.90
2017-09-10T22:04:52.202Z,68.80
2017-09-10T22:07:20.436Z,68.80
2017-09-10T22:09:48.659Z,68.60
2017-09-10T22:12:16.914Z,68.70
2017-09-10T22:14:46.418Z,69.00
2017-09-10T22:17:16.159Z,69.00
2017-09-10T22:19:44.477Z,69.00
2017-09-10T22:22:12.706Z,69.00
2017-09-10T22:24:41.743Z,68.60
2017-09-10T22:27:10.463Z,68.50
2017-09-10T22:29:38.755Z,68.60
2017-09-10T22:32:06.990Z,68.80
2017-09-10T22:34:36.013Z,69.10
2017-09-10T22:37:04.222Z,69.10
2017-09-10T22:39:32.475Z,69.00
2017-09-10T22:42:01.508Z,68.90
2017-09-10T22:44:29.747Z,68.90
2017-09-10T22:46:58.778Z,69.10
2017-09-10T22:49:27.044Z,69.00
2017-09-10T22:51:55.324Z,69.00
2017-09-10T22:54:23.597Z,69.00
2017-09-10T22:56:51.824Z,69.10
2017-09-10T22:59:20.122Z,69.10
2017-09-10T23:01:48.368Z,69.40
2017-09-10T23:04:16.621Z,69.60
2017-09-10T23:06:44.930Z,69.80
2017-09-10T23:09:13.180Z,70.20
2017-09-10T23:11:41.408Z,70.20
2017-09-10T23:14:10.441Z,70.90
2017-09-10T23:16:38.694Z,70.90
2017-09-10T23:19:07.734Z,71.30
2017-09-10T23:21:35.983Z,71.20
2017-09-10T23:24:04.222Z,71.60
2017-09-10T23:26:32.456Z,71.60
2017-09-10T23:29:00.727Z,71.60
2017-09-10T23:31:28.943Z,71.60
2017-09-10T23:33:57.207Z,71.80
2017-09-10T23:36:25.451Z,72.20
2017-09-10T23:38:53.707Z,72.20
2017-09-10T23:41:21.971Z,72.20
2017-09-10T23:43:50.234Z,72.40
2017-09-10T23:46:18.482Z,72.70
2017-09-10T23:48:46.720Z,72.90
2017-09-10T23:51:14.966Z,73.10
2017-09-10T23:53:43.229Z,73.40
2017-09-10T23:56:11.467Z,73.30
2017-09-10T23:58:39.727Z,73.40
